createdAt,value
2018-10-17T00:01:54.542Z,101754.09
2018-10-17T00:04:23.617Z,101754.48
2018-10-17T00:06:52.704Z,101754.09
2018-10-17T00:09:21.997Z,101755.92
2018-10-17T00:11:51.113Z,101761.39
2018-10-17T00:14:20.231Z,101759.97
2018-10-17T00:16:49.319Z,101761.80
2018-10-17T00:19:18.346Z,101757.76
2018-10-17T00:21:47.378Z,101757.34
2018-10-17T00:24:16.457Z,101761.39
2018-10-17T00:26:45.582Z,101758.20
2018-10-17T00:29:14.739Z,101758.20
2018-10-17T00:31:43.878Z,101764.09
2018-10-17T00:34:12.910Z,101763.67
2018-10-17T00:36:41.988Z,101763.25
2018-10-17T00:39:11.839Z,101765.95
2018-10-17T00:41:41.376Z,101766.30
2018-10-17T00:44:10.958Z,101766.37
2018-10-17T00:46:39.978Z,101765.50
2018-10-17T00:49:09.147Z,101763.73
2018-10-17T00:51:38.467Z,101764.70
2018-10-17T00:54:07.754Z,101762.39
2018-10-17T00:56:36.875Z,101757.86
2018-10-17T00:59:09.731Z,101760.56
2018-10-17T01:01:39.320Z,101760.56
2018-10-17T01:04:08.830Z,101761.52
2018-10-17T01:06:38.347Z,101762.48
2018-10-17T01:09:14.757Z,101755.27
2018-10-17T01:11:43.908Z,101757.16
2018-10-17T01:14:13.030Z,101760.17
2018-10-17T01:16:42.159Z,101757.55
2018-10-17T01:19:11.280Z,101752.16
2018-10-17T01:21:40.713Z,101747.72
2018-10-17T01:24:09.760Z,101758.44
2018-10-17T01:26:38.797Z,101757.16
2018-10-17T01:29:07.964Z,101755.33
2018-10-17T01:31:37.291Z,101756.68
2018-10-17T01:34:06.413Z,101748.59
2018-10-17T01:36:35.510Z,101753.12
2018-10-17T01:39:06.864Z,101742.81
2018-10-17T01:41:35.970Z,101745.99
2018-10-17T01:44:05.543Z,101747.24
2018-10-17T01:46:34.665Z,101745.09
2018-10-17T01:49:03.845Z,101742.81
2018-10-17T01:51:33.071Z,101745.51
2018-10-17T01:54:02.281Z,101737.48
2018-10-17T01:56:31.326Z,101742.33
2018-10-17T01:59:00.507Z,101744.65
2018-10-17T02:01:29.740Z,101746.45
2018-10-17T02:03:58.811Z,101751.84
2018-10-17T02:06:27.972Z,101745.51
2018-10-17T02:08:57.034Z,101746.86
2018-10-17T02:11:26.107Z,101747.34
2018-10-17T02:13:55.220Z,101740.59
2018-10-17T02:16:24.334Z,101737.97
2018-10-17T02:18:53.496Z,101737.48
2018-10-17T02:21:22.728Z,101735.20
2018-10-17T02:23:51.779Z,101733.06
2018-10-17T02:26:20.830Z,101730.75
2018-10-17T02:28:49.896Z,101732.58
2018-10-17T02:31:19.082Z,101735.76
2018-10-17T02:33:48.411Z,101737.11
2018-10-17T02:36:17.615Z,101738.94
2018-10-17T02:38:46.679Z,101737.97
2018-10-17T02:41:15.822Z,101738.94
2018-10-17T02:43:45.007Z,101742.98
2018-10-17T02:46:14.192Z,101735.76
2018-10-17T02:48:43.233Z,101730.36
2018-10-17T02:51:12.310Z,101728.70
2018-10-17T02:53:41.395Z,101729.09
2018-10-17T02:56:10.500Z,101725.04
2018-10-17T02:58:39.568Z,101730.44
2018-10-17T03:01:08.734Z,101730.91
2018-10-17T03:03:37.959Z,101730.91
2018-10-17T03:06:07.020Z,101731.78
2018-10-17T03:08:36.301Z,101729.56
2018-10-17T03:11:05.657Z,101727.84
2018-10-17T03:13:34.956Z,101727.35
2018-10-17T03:16:04.085Z,101724.66
2018-10-17T03:18:33.151Z,101733.23
2018-10-17T03:21:02.211Z,101735.83
2018-10-17T03:23:31.259Z,101733.68
2018-10-17T03:26:00.360Z,101748.52
2018-10-17T03:28:29.465Z,101747.27
2018-10-17T03:30:58.851Z,101751.79
2018-10-17T03:33:28.140Z,101758.43
2018-10-17T03:35:57.268Z,101755.73
2018-10-17T03:38:26.571Z,101762.58
2018-10-17T03:40:55.695Z,101762.58
2018-10-17T03:43:24.933Z,101763.92
2018-10-17T03:45:59.420Z,101764.38
2018-10-17T03:48:28.577Z,101771.12
2018-10-17T03:50:57.633Z,101775.09
2018-10-17T03:53:26.712Z,101772.95
2018-10-17T03:55:55.756Z,101780.10
2018-10-17T03:58:24.853Z,101775.16
2018-10-17T04:00:54.005Z,101779.69
2018-10-17T04:03:23.161Z,101780.10
2018-10-17T04:05:52.101Z,101788.20
2018-10-17T04:08:21.190Z,101786.43
2018-10-17T04:10:50.220Z,101784.59
2018-10-17T04:13:19.368Z,101789.99
2018-10-17T04:15:48.532Z,101788.20
2018-10-17T04:18:17.579Z,101789.61
2018-10-17T04:20:46.717Z,101790.48
2018-10-17T04:23:15.994Z,101790.09
2018-10-17T04:25:45.168Z,101795.00
2018-10-17T04:28:14.316Z,101799.98
2018-10-17T04:30:43.381Z,101795.48
2018-10-17T04:33:17.924Z,101800.88
2018-10-17T04:35:46.981Z,101802.22
2018-10-17T04:38:16.046Z,101804.02
2018-10-17T04:40:45.124Z,101803.16
2018-10-17T04:43:14.316Z,101809.41
2018-10-17T04:45:43.497Z,101805.47
2018-10-17T04:48:12.625Z,101809.52
2018-10-17T04:50:41.681Z,101813.08
2018-10-17T04:53:10.909Z,101813.94
2018-10-17T04:55:40.088Z,101813.45
2018-10-17T04:58:09.192Z,101814.42
2018-10-17T05:00:38.207Z,101813.56
2018-10-17T05:03:07.272Z,101814.91
2018-10-17T05:05:36.381Z,101815.29
2018-10-17T05:08:05.666Z,101821.55
2018-10-17T05:10:34.797Z,101812.20
2018-10-17T05:13:03.889Z,101819.44
2018-10-17T05:15:33.163Z,101814.49
2018-10-17T05:18:02.427Z,101817.60
2018-10-17T05:20:31.492Z,101816.73
2018-10-17T05:23:00.591Z,101815.39
2018-10-17T05:25:29.839Z,101812.28
2018-10-17T05:27:58.919Z,101813.63
2018-10-17T05:30:28.053Z,101810.92
2018-10-17T05:32:57.133Z,101806.02
2018-10-17T05:35:26.214Z,101812.38
2018-10-17T05:37:55.449Z,101812.76
2018-10-17T05:40:24.630Z,101815.45
2018-10-17T05:42:53.766Z,101816.80
2018-10-17T05:45:22.742Z,101816.80
2018-10-17T05:47:51.850Z,101822.20
2018-10-17T05:50:20.911Z,101821.71
2018-10-17T05:52:49.990Z,101825.76
2018-10-17T05:55:19.113Z,101824.51
2018-10-17T05:57:48.439Z,101830.35
2018-10-17T06:00:17.525Z,101835.73
2018-10-17T06:02:46.587Z,101836.64
2018-10-17T06:05:15.716Z,101835.73
2018-10-17T06:07:44.916Z,101842.03
2018-10-17T06:10:13.947Z,101845.59
2018-10-17T06:12:43.187Z,101842.03
2018-10-17T06:15:12.315Z,101847.42
2018-10-17T06:17:41.293Z,101849.22
2018-10-17T06:20:10.373Z,101857.31
2018-10-17T06:22:39.387Z,101852.41
2018-10-17T06:25:08.995Z,101859.14
2018-10-17T06:27:38.128Z,101859.08
2018-10-17T06:30:08.669Z,101861.77
2018-10-17T06:32:37.857Z,101859.08
2018-10-17T06:35:07.422Z,101863.13
2018-10-17T06:37:37.046Z,101859.56
2018-10-17T06:40:06.936Z,101866.30
2018-10-17T06:42:36.014Z,101863.60
2018-10-17T06:45:05.500Z,101866.30
2018-10-17T06:47:34.539Z,101866.69
2018-10-17T06:50:03.680Z,101869.38
2018-10-17T06:52:32.838Z,101872.08
2018-10-17T06:55:01.901Z,101871.11
2018-10-17T06:57:31.149Z,101871.53
2018-10-17T07:00:00.203Z,101876.44
2018-10-17T07:02:29.251Z,101873.36
2018-10-17T07:04:58.337Z,101871.53
2018-10-17T07:07:27.563Z,101878.75
2018-10-17T07:09:56.639Z,101871.91
2018-10-17T07:12:25.802Z,101880.00
2018-10-17T07:14:54.875Z,101876.83
2018-10-17T07:17:23.883Z,101870.98
2018-10-17T07:19:52.984Z,101876.44
2018-10-17T07:22:22.037Z,101876.83
2018-10-17T07:24:51.116Z,101880.48
2018-10-17T07:27:20.398Z,101884.05
2018-10-17T07:29:49.621Z,101884.05
2018-10-17T07:32:18.761Z,101888.09
2018-10-17T07:34:47.840Z,101881.45
2018-10-17T07:37:16.925Z,101885.50
2018-10-17T07:39:46.003Z,101886.84
2018-10-17T07:42:15.313Z,101886.75
2018-10-17T07:44:44.367Z,101888.19
2018-10-17T07:47:13.451Z,101884.53
2018-10-17T07:49:42.558Z,101887.23
2018-10-17T07:52:11.802Z,101891.27
2018-10-17T07:54:40.860Z,101891.66
2018-10-17T07:57:09.947Z,101892.56
2018-10-17T07:59:39.077Z,101892.56
2018-10-17T08:02:08.324Z,101897.95
2018-10-17T08:04:37.504Z,101897.81
2018-10-17T08:07:06.698Z,101894.98
2018-10-17T08:09:35.924Z,101897.91
2018-10-17T08:12:05.188Z,101903.44
2018-10-17T08:14:34.452Z,101898.78
2018-10-17T08:17:03.509Z,101902.56
2018-10-17T08:19:32.643Z,101906.95
2018-10-17T08:22:01.755Z,101901.18
2018-10-17T08:24:30.924Z,101905.15
2018-10-17T08:27:00.020Z,101915.95
2018-10-17T08:29:29.342Z,101914.25
2018-10-17T08:31:58.430Z,101914.39
2018-10-17T08:34:27.531Z,101911.83
2018-10-17T08:36:56.882Z,101913.39
2018-10-17T08:39:25.888Z,101918.48
